sensor_id;sensor_type;location;lat;lon;timestamp;P1;durP1;ratioP1;P2;durP2;ratioP2
15273;SDS011;7738;49.532;11.156;2022-12-10T00:00:54;26.87;;;16.67;;
15273;SDS011;7738;49.532;11.156;2022-12-10T00:03:25;30.63;;;15.63;;
15273;SDS011;7738;49.532;11.156;2022-12-10T00:05:56;29.90;;;15.33;;
15273;SDS011;7738;49.532;11.156;2022-12-10T00:08:29;28.60;;;15.95;;
15273;SDS011;7738;49.532;11.156;2022-12-10T00:11:00;29.83;;;16.87;;
15273;SDS011;7738;49.532;11.156;2022-12-10T00:13:34;32.77;;;16.73;;
15273;SDS011;7738;49.532;11.156;2022-12-10T00:16:06;31.73;;;15.80;;
15273;SDS011;7738;49.532;11.156;2022-12-10T00:18:38;26.13;;;13.53;;
15273;SDS011;7738;49.532;11.156;2022-12-10T00:21:09;28.70;;;15.70;;
15273;SDS011;7738;49.532;11.156;2022-12-10T00:23:40;25.87;;;14.23;;
15273;SDS011;7738;49.532;11.156;2022-12-10T00:26:11;29.60;;;14.67;;
15273;SDS011;7738;49.532;11.156;2022-12-10T00:28:46;23.27;;;14.50;;
15273;SDS011;7738;49.532;11.156;2022-12-10T00:31:18;24.00;;;14.02;;
15273;SDS011;7738;49.532;11.156;2022-12-10T00:33:50;26.77;;;14.67;;
15273;SDS011;7738;49.532;11.156;2022-12-10T00:36:21;25.73;;;14.43;;
15273;SDS011;7738;49.532;11.156;2022-12-10T00:38:52;26.53;;;14.53;;
15273;SDS011;7738;49.532;11.156;2022-12-10T00:41:25;23.37;;;13.83;;
15273;SDS011;7738;49.532;11.156;2022-12-10T00:43:58;30.90;;;16.00;;
15273;SDS011;7738;49.532;11.156;2022-12-10T00:46:28;36.03;;;16.60;;
15273;SDS011;7738;49.532;11.156;2022-12-10T00:49:00;30.53;;;15.57;;
15273;SDS011;7738;49.532;11.156;2022-12-10T00:51:31;32.47;;;15.87;;
15273;SDS011;7738;49.532;11.156;2022-12-10T00:54:01;27.43;;;14.70;;
15273;SDS011;7738;49.532;11.156;2022-12-10T00:56:32;30.33;;;15.33;;
15273;SDS011;7738;49.532;11.156;2022-12-10T00:59:05;34.63;;;14.17;;
15273;SDS011;7738;49.532;11.156;2022-12-10T01:01:36;27.10;;;13.70;;
15273;SDS011;7738;49.532;11.156;2022-12-10T01:04:08;30.93;;;14.77;;
15273;SDS011;7738;49.532;11.156;2022-12-10T01:06:40;31.20;;;15.20;;
15273;SDS011;7738;49.532;11.156;2022-12-10T01:09:13;29.03;;;15.93;;
15273;SDS011;7738;49.532;11.156;2022-12-10T01:11:45;25.63;;;13.90;;
15273;SDS011;7738;49.532;11.156;2022-12-10T01:14:20;26.80;;;14.00;;
15273;SDS011;7738;49.532;11.156;2022-12-10T01:16:53;35.67;;;14.67;;
15273;SDS011;7738;49.532;11.156;2022-12-10T01:19:24;26.33;;;13.83;;
15273;SDS011;7738;49.532;11.156;2022-12-10T01:21:55;26.90;;;14.10;;
15273;SDS011;7738;49.532;11.156;2022-12-10T01:24:26;25.43;;;12.83;;
15273;SDS011;7738;49.532;11.156;2022-12-10T01:26:57;28.73;;;14.03;;
15273;SDS011;7738;49.532;11.156;2022-12-10T01:29:30;26.70;;;13.33;;
15273;SDS011;7738;49.532;11.156;2022-12-10T01:32:00;29.73;;;13.73;;
15273;SDS011;7738;49.532;11.156;2022-12-10T01:34:30;26.93;;;13.60;;
15273;SDS011;7738;49.532;11.156;2022-12-10T01:37:00;28.50;;;13.93;;
15273;SDS011;7738;49.532;11.156;2022-12-10T01:39:31;25.13;;;12.53;;
15273;SDS011;7738;49.532;11.156;2022-12-10T01:42:01;21.00;;;11.83;;
15273;SDS011;7738;49.532;11.156;2022-12-10T01:47:32;30.90;;;14.10;;
15273;SDS011;7738;49.532;11.156;2022-12-10T01:50:02;24.60;;;12.67;;
15273;SDS011;7738;49.532;11.156;2022-12-10T01:52:36;27.00;;;14.10;;
15273;SDS011;7738;49.532;11.156;2022-12-10T01:55:08;25.50;;;14.37;;
15273;SDS011;7738;49.532;11.156;2022-12-10T01:58:18;26.47;;;15.03;;
15273;SDS011;7738;49.532;11.156;2022-12-10T02:00:59;26.77;;;13.57;;
15273;SDS011;7738;49.532;11.156;2022-12-10T02:03:38;24.43;;;12.70;;
15273;SDS011;7738;49.532;11.156;2022-12-10T02:06:21;33.00;;;13.63;;
15273;SDS011;7738;49.532;11.156;2022-12-10T02:09:00;25.30;;;13.63;;
15273;SDS011;7738;49.532;11.156;2022-12-10T02:11:37;21.87;;;12.57;;
15273;SDS011;7738;49.532;11.156;2022-12-10T02:14:15;27.73;;;13.27;;
15273;SDS011;7738;49.532;11.156;2022-12-10T02:16:53;25.10;;;13.60;;
15273;SDS011;7738;49.532;11.156;2022-12-10T02:19:32;21.50;;;12.47;;
15273;SDS011;7738;49.532;11.156;2022-12-10T02:22:19;23.70;;;12.07;;
15273;SDS011;7738;49.532;11.156;2022-12-10T02:24:52;25.20;;;12.67;;
15273;SDS011;7738;49.532;11.156;2022-12-10T02:27:26;20.60;;;11.00;;
15273;SDS011;7738;49.532;11.156;2022-12-10T02:30:04;20.70;;;12.57;;
15273;SDS011;7738;49.532;11.156;2022-12-10T02:32:36;23.25;;;13.40;;
15273;SDS011;7738;49.532;11.156;2022-12-10T02:35:10;23.00;;;11.27;;
15273;SDS011;7738;49.532;11.156;2022-12-10T02:37:45;30.48;;;12.35;;
15273;SDS011;7738;49.532;11.156;2022-12-10T02:40:20;26.17;;;11.33;;
15273;SDS011;7738;49.532;11.156;2022-12-10T02:42:54;20.77;;;12.03;;
15273;SDS011;7738;49.532;11.156;2022-12-10T02:45:28;22.87;;;13.43;;
15273;SDS011;7738;49.532;11.156;2022-12-10T02:48:01;23.20;;;13.07;;
15273;SDS011;7738;49.532;11.156;2022-12-10T02:50:38;24.70;;;14.10;;
15273;SDS011;7738;49.532;11.156;2022-12-10T02:53:08;29.47;;;13.70;;
15273;SDS011;7738;49.532;11.156;2022-12-10T02:55:42;19.60;;;11.90;;
15273;SDS011;7738;49.532;11.156;2022-12-10T02:58:25;29.10;;;14.23;;
15273;SDS011;7738;49.532;11.156;2022-12-10T03:01:06;21.37;;;13.50;;
15273;SDS011;7738;49.532;11.156;2022-12-10T03:03:42;18.97;;;11.93;;
15273;SDS011;7738;49.532;11.156;2022-12-10T03:06:18;28.23;;;13.47;;
15273;SDS011;7738;49.532;11.156;2022-12-10T03:08:54;23.03;;;12.27;;
15273;SDS011;7738;49.532;11.156;2022-12-10T03:11:29;26.90;;;12.87;;
15273;SDS011;7738;49.532;11.156;2022-12-10T03:14:00;27.00;;;12.97;;
15273;SDS011;7738;49.532;11.156;2022-12-10T03:19:10;27.88;;;12.90;;
15273;SDS011;7738;49.532;11.156;2022-12-10T03:21:42;24.93;;;13.50;;
15273;SDS011;7738;49.532;11.156;2022-12-10T03:24:13;26.93;;;13.47;;
15273;SDS011;7738;49.532;11.156;2022-12-10T03:26:45;23.40;;;13.27;;
15273;SDS011;7738;49.532;11.156;2022-12-10T03:29:19;18.73;;;11.60;;
15273;SDS011;7738;49.532;11.156;2022-12-10T03:32:00;29.77;;;17.50;;
15273;SDS011;7738;49.532;11.156;2022-12-10T03:34:32;31.67;;;19.38;;
15273;SDS011;7738;49.532;11.156;2022-12-10T03:37:02;26.80;;;15.07;;
15273;SDS011;7738;49.532;11.156;2022-12-10T03:39:33;23.90;;;13.80;;
15273;SDS011;7738;49.532;11.156;2022-12-10T03:42:04;30.73;;;14.83;;
15273;SDS011;7738;49.532;11.156;2022-12-10T03:44:35;26.17;;;13.27;;
15273;SDS011;7738;49.532;11.156;2022-12-10T03:47:10;25.00;;;12.80;;
15273;SDS011;7738;49.532;11.156;2022-12-10T03:49:43;25.43;;;13.83;;
15273;SDS011;7738;49.532;11.156;2022-12-10T03:52:13;25.80;;;13.50;;
15273;SDS011;7738;49.532;11.156;2022-12-10T03:54:44;26.93;;;14.43;;
15273;SDS011;7738;49.532;11.156;2022-12-10T03:57:14;26.00;;;15.17;;
15273;SDS011;7738;49.532;11.156;2022-12-10T03:59:44;26.17;;;12.93;;
15273;SDS011;7738;49.532;11.156;2022-12-10T04:02:17;25.37;;;11.67;;
15273;SDS011;7738;49.532;11.156;2022-12-10T04:04:48;24.53;;;13.07;;
15273;SDS011;7738;49.532;11.156;2022-12-10T04:07:18;23.80;;;13.97;;
15273;SDS011;7738;49.532;11.156;2022-12-10T04:09:48;26.53;;;14.53;;
15273;SDS011;7738;49.532;11.156;2022-12-10T04:12:18;26.87;;;15.33;;
15273;SDS011;7738;49.532;11.156;2022-12-10T04:14:49;25.00;;;14.00;;
15273;SDS011;7738;49.532;11.156;2022-12-10T04:17:43;26.67;;;13.73;;
15273;SDS011;7738;49.532;11.156;2022-12-10T04:20:13;23.73;;;12.97;;
15273;SDS011;7738;49.532;11.156;2022-12-10T04:22:55;28.50;;;14.67;;
15273;SDS011;7738;49.532;11.156;2022-12-10T04:25:41;27.27;;;14.40;;
15273;SDS011;7738;49.532;11.156;2022-12-10T04:28:23;26.53;;;13.87;;
15273;SDS011;7738;49.532;11.156;2022-12-10T04:30:53;19.20;;;12.07;;
15273;SDS011;7738;49.532;11.156;2022-12-10T04:33:26;22.30;;;12.23;;
15273;SDS011;7738;49.532;11.156;2022-12-10T04:35:56;23.90;;;13.10;;
15273;SDS011;7738;49.532;11.156;2022-12-10T04:38:27;22.97;;;12.60;;
15273;SDS011;7738;49.532;11.156;2022-12-10T04:40:57;26.50;;;14.20;;
15273;SDS011;7738;49.532;11.156;2022-12-10T04:43:27;20.33;;;12.80;;
15273;SDS011;7738;49.532;11.156;2022-12-10T04:45:57;26.80;;;14.83;;
15273;SDS011;7738;49.532;11.156;2022-12-10T04:48:30;27.27;;;13.30;;
15273;SDS011;7738;49.532;11.156;2022-12-10T04:51:00;26.20;;;12.70;;
15273;SDS011;7738;49.532;11.156;2022-12-10T04:53:30;24.83;;;12.70;;
15273;SDS011;7738;49.532;11.156;2022-12-10T04:56:01;23.27;;;13.47;;
15273;SDS011;7738;49.532;11.156;2022-12-10T04:58:31;31.03;;;14.43;;
15273;SDS011;7738;49.532;11.156;2022-12-10T05:01:02;22.97;;;13.43;;
15273;SDS011;7738;49.532;11.156;2022-12-10T05:03:35;28.00;;;13.40;;
15273;SDS011;7738;49.532;11.156;2022-12-10T05:06:06;27.83;;;14.15;;
15273;SDS011;7738;49.532;11.156;2022-12-10T05:08:38;25.60;;;12.57;;
15273;SDS011;7738;49.532;11.156;2022-12-10T05:11:10;25.47;;;12.30;;
15273;SDS011;7738;49.532;11.156;2022-12-10T05:13:41;29.43;;;13.57;;
15273;SDS011;7738;49.532;11.156;2022-12-10T05:16:12;19.97;;;11.63;;
15273;SDS011;7738;49.532;11.156;2022-12-10T05:18:46;24.63;;;13.27;;
15273;SDS011;7738;49.532;11.156;2022-12-10T05:21:17;27.97;;;14.20;;
15273;SDS011;7738;49.532;11.156;2022-12-10T05:23:49;26.90;;;12.83;;
15273;SDS011;7738;49.532;11.156;2022-12-10T05:26:19;24.83;;;13.77;;
15273;SDS011;7738;49.532;11.156;2022-12-10T05:28:51;22.90;;;13.90;;
15273;SDS011;7738;49.532;11.156;2022-12-10T05:31:23;27.70;;;13.80;;
15273;SDS011;7738;49.532;11.156;2022-12-10T05:33:57;28.20;;;12.57;;
15273;SDS011;7738;49.532;11.156;2022-12-10T05:36:28;23.90;;;12.77;;
15273;SDS011;7738;49.532;11.156;2022-12-10T05:38:59;24.13;;;12.67;;
15273;SDS011;7738;49.532;11.156;2022-12-10T05:41:31;23.20;;;12.73;;
15273;SDS011;7738;49.532;11.156;2022-12-10T05:44:04;22.38;;;12.18;;
15273;SDS011;7738;49.532;11.156;2022-12-10T05:46:34;26.63;;;12.97;;
15273;SDS011;7738;49.532;11.156;2022-12-10T05:49:07;22.47;;;13.20;;
15273;SDS011;7738;49.532;11.156;2022-12-10T05:51:37;20.60;;;10.93;;
15273;SDS011;7738;49.532;11.156;2022-12-10T05:54:09;23.10;;;13.30;;
15273;SDS011;7738;49.532;11.156;2022-12-10T05:56:39;24.07;;;13.10;;
15273;SDS011;7738;49.532;11.156;2022-12-10T05:59:09;24.70;;;13.47;;
15273;SDS011;7738;49.532;11.156;2022-12-10T06:01:42;26.50;;;13.83;;
15273;SDS011;7738;49.532;11.156;2022-12-10T06:04:15;23.73;;;12.73;;
15273;SDS011;7738;49.532;11.156;2022-12-10T06:06:46;21.90;;;11.90;;
15273;SDS011;7738;49.532;11.156;2022-12-10T06:09:16;24.57;;;13.30;;
15273;SDS011;7738;49.532;11.156;2022-12-10T06:11:46;23.73;;;12.93;;
15273;SDS011;7738;49.532;11.156;2022-12-10T06:14:17;26.87;;;13.73;;
15273;SDS011;7738;49.532;11.156;2022-12-10T06:16:47;22.60;;;13.50;;
15273;SDS011;7738;49.532;11.156;2022-12-10T06:19:20;24.63;;;14.20;;
15273;SDS011;7738;49.532;11.156;2022-12-10T06:21:51;26.00;;;13.70;;
15273;SDS011;7738;49.532;11.156;2022-12-10T06:24:21;24.73;;;14.00;;
15273;SDS011;7738;49.532;11.156;2022-12-10T06:26:51;29.77;;;15.27;;
15273;SDS011;7738;49.532;11.156;2022-12-10T06:29:25;28.43;;;15.23;;
15273;SDS011;7738;49.532;11.156;2022-12-10T06:31:55;31.13;;;16.93;;
15273;SDS011;7738;49.532;11.156;2022-12-10T06:34:28;29.17;;;15.13;;
15273;SDS011;7738;49.532;11.156;2022-12-10T06:36:58;32.40;;;15.03;;
15273;SDS011;7738;49.532;11.156;2022-12-10T06:39:28;26.07;;;14.27;;
15273;SDS011;7738;49.532;11.156;2022-12-10T06:41:58;26.70;;;14.53;;
15273;SDS011;7738;49.532;11.156;2022-12-10T06:44:29;31.03;;;16.27;;
15273;SDS011;7738;49.532;11.156;2022-12-10T06:46:59;24.07;;;14.10;;
15273;SDS011;7738;49.532;11.156;2022-12-10T06:49:32;31.37;;;14.70;;
15273;SDS011;7738;49.532;11.156;2022-12-10T06:52:02;25.83;;;13.27;;
15273;SDS011;7738;49.532;11.156;2022-12-10T06:54:32;22.57;;;12.87;;
15273;SDS011;7738;49.532;11.156;2022-12-10T06:57:03;23.03;;;12.83;;
15273;SDS011;7738;49.532;11.156;2022-12-10T06:59:33;23.90;;;13.50;;
15273;SDS011;7738;49.532;11.156;2022-12-10T07:02:03;26.30;;;13.13;;
15273;SDS011;7738;49.532;11.156;2022-12-10T07:04:36;23.10;;;13.27;;
15273;SDS011;7738;49.532;11.156;2022-12-10T07:07:07;22.13;;;13.73;;
15273;SDS011;7738;49.532;11.156;2022-12-10T07:09:37;28.33;;;12.63;;
15273;SDS011;7738;49.532;11.156;2022-12-10T07:12:07;23.60;;;13.37;;
15273;SDS011;7738;49.532;11.156;2022-12-10T07:14:37;30.50;;;15.57;;
15273;SDS011;7738;49.532;11.156;2022-12-10T07:17:08;39.73;;;20.97;;
15273;SDS011;7738;49.532;11.156;2022-12-10T07:19:41;29.67;;;14.33;;
15273;SDS011;7738;49.532;11.156;2022-12-10T07:22:11;22.57;;;12.73;;
15273;SDS011;7738;49.532;11.156;2022-12-10T07:24:41;25.07;;;13.13;;
15273;SDS011;7738;49.532;11.156;2022-12-10T07:27:12;34.43;;;13.93;;
15273;SDS011;7738;49.532;11.156;2022-12-10T07:29:43;26.43;;;14.63;;
15273;SDS011;7738;49.532;11.156;2022-12-10T07:32:13;34.30;;;17.47;;
15273;SDS011;7738;49.532;11.156;2022-12-10T07:34:46;28.33;;;14.40;;
15273;SDS011;7738;49.532;11.156;2022-12-10T07:37:18;22.92;;;13.77;;
15273;SDS011;7738;49.532;11.156;2022-12-10T07:39:48;23.77;;;13.07;;
15273;SDS011;7738;49.532;11.156;2022-12-10T07:42:19;26.47;;;14.63;;
15273;SDS011;7738;49.532;11.156;2022-12-10T07:44:49;28.80;;;17.00;;
15273;SDS011;7738;49.532;11.156;2022-12-10T07:47:19;19.70;;;12.97;;
15273;SDS011;7738;49.532;11.156;2022-12-10T07:49:52;22.00;;;12.37;;
15273;SDS011;7738;49.532;11.156;2022-12-10T07:52:22;27.37;;;15.17;;
15273;SDS011;7738;49.532;11.156;2022-12-10T07:54:53;29.70;;;15.87;;
15273;SDS011;7738;49.532;11.156;2022-12-10T07:57:23;30.03;;;14.47;;
15273;SDS011;7738;49.532;11.156;2022-12-10T07:59:53;33.97;;;16.63;;
15273;SDS011;7738;49.532;11.156;2022-12-10T08:02:24;35.57;;;18.60;;
15273;SDS011;7738;49.532;11.156;2022-12-10T08:04:57;30.60;;;16.37;;
15273;SDS011;7738;49.532;11.156;2022-12-10T08:07:27;35.47;;;18.67;;
15273;SDS011;7738;49.532;11.156;2022-12-10T08:09:58;29.60;;;15.13;;
15273;SDS011;7738;49.532;11.156;2022-12-10T08:12:28;29.70;;;16.77;;
15273;SDS011;7738;49.532;11.156;2022-12-10T08:14:58;32.73;;;17.90;;
15273;SDS011;7738;49.532;11.156;2022-12-10T08:17:29;31.30;;;15.20;;
15273;SDS011;7738;49.532;11.156;2022-12-10T08:20:02;36.63;;;17.70;;
15273;SDS011;7738;49.532;11.156;2022-12-10T08:22:33;38.83;;;19.15;;
15273;SDS011;7738;49.532;11.156;2022-12-10T08:25:05;34.53;;;16.07;;
15273;SDS011;7738;49.532;11.156;2022-12-10T08:27:35;33.43;;;16.27;;
15273;SDS011;7738;49.532;11.156;2022-12-10T08:30:06;38.80;;;17.67;;
15273;SDS011;7738;49.532;11.156;2022-12-10T08:32:37;35.47;;;19.10;;
15273;SDS011;7738;49.532;11.156;2022-12-10T08:35:10;38.63;;;17.70;;
15273;SDS011;7738;49.532;11.156;2022-12-10T08:37:40;31.13;;;16.13;;
15273;SDS011;7738;49.532;11.156;2022-12-10T08:40:11;38.63;;;19.67;;
15273;SDS011;7738;49.532;11.156;2022-12-10T08:42:41;35.03;;;17.63;;
15273;SDS011;7738;49.532;11.156;2022-12-10T08:45:11;32.57;;;17.43;;
15273;SDS011;7738;49.532;11.156;2022-12-10T08:47:42;36.53;;;18.27;;
15273;SDS011;7738;49.532;11.156;2022-12-10T08:50:14;35.80;;;16.57;;
15273;SDS011;7738;49.532;11.156;2022-12-10T08:52:45;37.30;;;19.60;;
15273;SDS011;7738;49.532;11.156;2022-12-10T08:55:15;48.27;;;20.97;;
15273;SDS011;7738;49.532;11.156;2022-12-10T08:57:45;40.70;;;19.30;;
15273;SDS011;7738;49.532;11.156;2022-12-10T09:00:17;36.50;;;16.70;;
15273;SDS011;7738;49.532;11.156;2022-12-10T09:02:49;38.33;;;18.13;;
15273;SDS011;7738;49.532;11.156;2022-12-10T09:05:23;37.00;;;17.20;;
15273;SDS011;7738;49.532;11.156;2022-12-10T09:07:53;38.27;;;18.10;;
15273;SDS011;7738;49.532;11.156;2022-12-10T09:10:24;32.20;;;16.80;;
15273;SDS011;7738;49.532;11.156;2022-12-10T09:12:54;33.87;;;17.97;;
15273;SDS011;7738;49.532;11.156;2022-12-10T09:17:59;37.57;;;16.80;;
15273;SDS011;7738;49.532;11.156;2022-12-10T09:20:31;31.00;;;15.90;;
15273;SDS011;7738;49.532;11.156;2022-12-10T09:23:02;32.60;;;18.63;;
15273;SDS011;7738;49.532;11.156;2022-12-10T09:25:32;35.97;;;17.67;;
15273;SDS011;7738;49.532;11.156;2022-12-10T09:28:02;34.17;;;19.47;;
15273;SDS011;7738;49.532;11.156;2022-12-10T09:30:32;39.23;;;17.90;;
15273;SDS011;7738;49.532;11.156;2022-12-10T09:33:03;38.57;;;18.80;;
15273;SDS011;7738;49.532;11.156;2022-12-10T09:35:38;39.50;;;21.20;;
15273;SDS011;7738;49.532;11.156;2022-12-10T09:38:10;40.47;;;20.67;;
15273;SDS011;7738;49.532;11.156;2022-12-10T09:40:41;34.67;;;19.27;;
15273;SDS011;7738;49.532;11.156;2022-12-10T09:43:14;41.70;;;19.93;;
15273;SDS011;7738;49.532;11.156;2022-12-10T09:45:49;33.58;;;18.55;;
15273;SDS011;7738;49.532;11.156;2022-12-10T09:50:59;34.47;;;18.67;;
15273;SDS011;7738;49.532;11.156;2022-12-10T09:53:38;38.27;;;19.40;;
15273;SDS011;7738;49.532;11.156;2022-12-10T09:56:11;35.93;;;19.37;;
15273;SDS011;7738;49.532;11.156;2022-12-10T09:58:50;33.97;;;18.20;;
15273;SDS011;7738;49.532;11.156;2022-12-10T10:01:23;34.67;;;17.27;;
15273;SDS011;7738;49.532;11.156;2022-12-10T10:03:56;35.17;;;17.60;;
15273;SDS011;7738;49.532;11.156;2022-12-10T10:06:29;36.20;;;18.70;;
15273;SDS011;7738;49.532;11.156;2022-12-10T10:09:00;31.17;;;16.27;;
15273;SDS011;7738;49.532;11.156;2022-12-10T10:11:32;39.50;;;19.13;;
15273;SDS011;7738;49.532;11.156;2022-12-10T10:14:05;35.37;;;18.30;;
15273;SDS011;7738;49.532;11.156;2022-12-10T10:16:42;41.93;;;21.40;;
15273;SDS011;7738;49.532;11.156;2022-12-10T10:19:15;33.87;;;19.30;;
15273;SDS011;7738;49.532;11.156;2022-12-10T10:21:50;34.70;;;18.40;;
15273;SDS011;7738;49.532;11.156;2022-12-10T10:24:21;36.72;;;20.67;;
15273;SDS011;7738;49.532;11.156;2022-12-10T10:26:57;34.33;;;19.43;;
15273;SDS011;7738;49.532;11.156;2022-12-10T10:29:30;36.57;;;19.43;;
15273;SDS011;7738;49.532;11.156;2022-12-10T10:32:11;34.63;;;19.23;;
15273;SDS011;7738;49.532;11.156;2022-12-10T10:34:46;40.10;;;21.03;;
15273;SDS011;7738;49.532;11.156;2022-12-10T10:37:25;38.57;;;17.93;;
15273;SDS011;7738;49.532;11.156;2022-12-10T10:39:57;33.77;;;18.67;;
15273;SDS011;7738;49.532;11.156;2022-12-10T10:42:31;31.87;;;18.10;;
15273;SDS011;7738;49.532;11.156;2022-12-10T10:45:05;33.87;;;18.23;;
15273;SDS011;7738;49.532;11.156;2022-12-10T10:48:03;38.90;;;21.60;;
15273;SDS011;7738;49.532;11.156;2022-12-10T10:50:38;38.70;;;20.83;;
15273;SDS011;7738;49.532;11.156;2022-12-10T10:53:26;34.63;;;18.13;;
15273;SDS011;7738;49.532;11.156;2022-12-10T10:56:00;36.97;;;18.27;;
15273;SDS011;7738;49.532;11.156;2022-12-10T10:58:35;35.03;;;18.37;;
15273;SDS011;7738;49.532;11.156;2022-12-10T11:01:14;35.20;;;18.23;;
15273;SDS011;7738;49.532;11.156;2022-12-10T11:03:45;34.50;;;18.67;;
15273;SDS011;7738;49.532;11.156;2022-12-10T11:08:51;30.53;;;16.20;;
15273;SDS011;7738;49.532;11.156;2022-12-10T11:11:34;34.33;;;18.50;;
15273;SDS011;7738;49.532;11.156;2022-12-10T11:14:14;39.23;;;20.37;;
15273;SDS011;7738;49.532;11.156;2022-12-10T11:16:54;28.17;;;17.33;;
15273;SDS011;7738;49.532;11.156;2022-12-10T11:19:30;38.37;;;19.50;;
15273;SDS011;7738;49.532;11.156;2022-12-10T11:22:14;34.03;;;19.07;;
15273;SDS011;7738;49.532;11.156;2022-12-10T11:24:49;36.93;;;19.77;;
15273;SDS011;7738;49.532;11.156;2022-12-10T11:30:15;36.93;;;18.93;;
15273;SDS011;7738;49.532;11.156;2022-12-10T11:32:53;35.80;;;18.65;;
15273;SDS011;7738;49.532;11.156;2022-12-10T11:35:27;39.20;;;19.07;;
15273;SDS011;7738;49.532;11.156;2022-12-10T11:38:02;40.50;;;20.00;;
15273;SDS011;7738;49.532;11.156;2022-12-10T11:40:46;42.37;;;18.97;;
15273;SDS011;7738;49.532;11.156;2022-12-10T11:46:26;36.87;;;19.30;;
15273;SDS011;7738;49.532;11.156;2022-12-10T11:49:12;34.47;;;18.00;;
15273;SDS011;7738;49.532;11.156;2022-12-10T11:51:51;38.03;;;19.50;;
15273;SDS011;7738;49.532;11.156;2022-12-10T11:54:33;36.70;;;20.10;;
15273;SDS011;7738;49.532;11.156;2022-12-10T11:57:16;33.73;;;19.20;;
15273;SDS011;7738;49.532;11.156;2022-12-10T11:59:53;33.63;;;20.67;;
15273;SDS011;7738;49.532;11.156;2022-12-10T12:02:43;31.50;;;18.17;;
15273;SDS011;7738;49.532;11.156;2022-12-10T12:05:31;33.97;;;17.90;;
15273;SDS011;7738;49.532;11.156;2022-12-10T12:08:19;32.77;;;17.77;;
15273;SDS011;7738;49.532;11.156;2022-12-10T12:11:04;30.77;;;17.37;;
15273;SDS011;7738;49.532;11.156;2022-12-10T12:14:12;38.37;;;19.13;;
15273;SDS011;7738;49.532;11.156;2022-12-10T12:16:49;37.03;;;19.53;;
15273;SDS011;7738;49.532;11.156;2022-12-10T12:19:28;41.00;;;19.70;;
15273;SDS011;7738;49.532;11.156;2022-12-10T12:22:00;39.10;;;18.55;;
15273;SDS011;7738;49.532;11.156;2022-12-10T12:24:41;38.67;;;20.20;;
15273;SDS011;7738;49.532;11.156;2022-12-10T12:27:16;37.20;;;19.30;;
15273;SDS011;7738;49.532;11.156;2022-12-10T12:30:00;35.30;;;21.03;;
15273;SDS011;7738;49.532;11.156;2022-12-10T12:32:38;36.13;;;20.47;;
15273;SDS011;7738;49.532;11.156;2022-12-10T12:35:17;37.80;;;17.93;;
15273;SDS011;7738;49.532;11.156;2022-12-10T12:37:53;36.25;;;18.90;;
15273;SDS011;7738;49.532;11.156;2022-12-10T12:40:28;38.40;;;19.50;;
15273;SDS011;7738;49.532;11.156;2022-12-10T12:42:59;32.27;;;18.53;;
15273;SDS011;7738;49.532;11.156;2022-12-10T12:45:38;37.65;;;20.00;;
15273;SDS011;7738;49.532;11.156;2022-12-10T12:48:13;33.50;;;19.27;;
15273;SDS011;7738;49.532;11.156;2022-12-10T12:50:49;37.80;;;20.20;;
15273;SDS011;7738;49.532;11.156;2022-12-10T12:53:23;43.33;;;22.35;;
15273;SDS011;7738;49.532;11.156;2022-12-10T12:56:02;45.70;;;22.40;;
15273;SDS011;7738;49.532;11.156;2022-12-10T12:58:36;42.28;;;22.20;;
15273;SDS011;7738;49.532;11.156;2022-12-10T13:01:18;42.73;;;21.03;;
15273;SDS011;7738;49.532;11.156;2022-12-10T13:03:54;38.92;;;20.45;;
15273;SDS011;7738;49.532;11.156;2022-12-10T13:06:27;41.43;;;21.50;;
15273;SDS011;7738;49.532;11.156;2022-12-10T13:12:00;35.07;;;18.43;;
15273;SDS011;7738;49.532;11.156;2022-12-10T13:15:11;41.53;;;21.10;;
15273;SDS011;7738;49.532;11.156;2022-12-10T13:24:05;35.83;;;19.03;;
15273;SDS011;7738;49.532;11.156;2022-12-10T13:26:40;37.20;;;19.93;;
15273;SDS011;7738;49.532;11.156;2022-12-10T13:29:42;33.07;;;19.43;;
15273;SDS011;7738;49.532;11.156;2022-12-10T13:32:15;39.50;;;20.07;;
15273;SDS011;7738;49.532;11.156;2022-12-10T13:34:47;38.30;;;20.53;;
15273;SDS011;7738;49.532;11.156;2022-12-10T13:37:53;40.67;;;21.67;;
15273;SDS011;7738;49.532;11.156;2022-12-10T13:40:25;36.63;;;20.23;;
15273;SDS011;7738;49.532;11.156;2022-12-10T13:43:25;37.67;;;19.77;;
15273;SDS011;7738;49.532;11.156;2022-12-10T13:46:30;34.00;;;19.13;;
15273;SDS011;7738;49.532;11.156;2022-12-10T13:49:02;31.57;;;18.50;;
15273;SDS011;7738;49.532;11.156;2022-12-10T13:51:43;35.57;;;20.13;;
15273;SDS011;7738;49.532;11.156;2022-12-10T13:54:29;41.20;;;20.37;;
15273;SDS011;7738;49.532;11.156;2022-12-10T13:57:19;39.40;;;22.13;;
15273;SDS011;7738;49.532;11.156;2022-12-10T14:00:01;37.07;;;19.43;;
15273;SDS011;7738;49.532;11.156;2022-12-10T14:02:45;44.70;;;21.70;;
15273;SDS011;7738;49.532;11.156;2022-12-10T14:05:39;42.43;;;22.33;;
15273;SDS011;7738;49.532;11.156;2022-12-10T14:08:18;43.40;;;20.47;;
15273;SDS011;7738;49.532;11.156;2022-12-10T14:10:52;46.40;;;21.90;;
15273;SDS011;7738;49.532;11.156;2022-12-10T14:13:24;43.70;;;22.47;;
15273;SDS011;7738;49.532;11.156;2022-12-10T14:16:00;35.70;;;19.27;;
15273;SDS011;7738;49.532;11.156;2022-12-10T14:18:35;42.47;;;21.57;;
15273;SDS011;7738;49.532;11.156;2022-12-10T14:21:06;44.42;;;21.00;;
15273;SDS011;7738;49.532;11.156;2022-12-10T14:23:37;37.57;;;20.60;;
15273;SDS011;7738;49.532;11.156;2022-12-10T14:26:22;29.83;;;16.05;;
15273;SDS011;7738;49.532;11.156;2022-12-10T14:28:57;35.57;;;19.50;;
15273;SDS011;7738;49.532;11.156;2022-12-10T14:31:29;36.30;;;19.73;;
15273;SDS011;7738;49.532;11.156;2022-12-10T14:34:04;43.40;;;21.43;;
15273;SDS011;7738;49.532;11.156;2022-12-10T14:36:37;40.73;;;20.47;;
15273;SDS011;7738;49.532;11.156;2022-12-10T14:39:13;36.70;;;18.53;;
15273;SDS011;7738;49.532;11.156;2022-12-10T14:41:45;43.57;;;21.20;;
15273;SDS011;7738;49.532;11.156;2022-12-10T14:44:17;37.97;;;18.87;;
15273;SDS011;7738;49.532;11.156;2022-12-10T14:46:49;43.43;;;25.13;;
15273;SDS011;7738;49.532;11.156;2022-12-10T14:49:23;45.33;;;22.07;;
15273;SDS011;7738;49.532;11.156;2022-12-10T14:51:55;33.87;;;19.07;;
15273;SDS011;7738;49.532;11.156;2022-12-10T14:54:27;35.07;;;19.33;;
15273;SDS011;7738;49.532;11.156;2022-12-10T14:56:59;37.03;;;21.17;;
15273;SDS011;7738;49.532;11.156;2022-12-10T14:59:33;39.80;;;20.93;;
15273;SDS011;7738;49.532;11.156;2022-12-10T15:02:12;37.70;;;19.40;;
15273;SDS011;7738;49.532;11.156;2022-12-10T15:04:50;40.37;;;20.40;;
15273;SDS011;7738;49.532;11.156;2022-12-10T15:07:21;41.73;;;21.00;;
15273;SDS011;7738;49.532;11.156;2022-12-10T15:09:53;34.73;;;18.27;;
15273;SDS011;7738;49.532;11.156;2022-12-10T15:12:28;34.93;;;19.13;;
15273;SDS011;7738;49.532;11.156;2022-12-10T15:15:02;33.53;;;18.90;;
15273;SDS011;7738;49.532;11.156;2022-12-10T15:17:38;35.87;;;20.40;;
15273;SDS011;7738;49.532;11.156;2022-12-10T15:20:17;34.63;;;16.93;;
15273;SDS011;7738;49.532;11.156;2022-12-10T15:22:49;38.70;;;19.33;;
15273;SDS011;7738;49.532;11.156;2022-12-10T15:25:20;37.97;;;20.17;;
15273;SDS011;7738;49.532;11.156;2022-12-10T15:27:56;71.73;;;25.90;;
15273;SDS011;7738;49.532;11.156;2022-12-10T15:30:38;51.37;;;21.57;;